sensor_id;sensor_type;location;lat;lon;timestamp;temperature;humidity
17774;DHT22;9011;33.236;-97.118;2023-05-16T00:01:20;28.30;99.90
17774;DHT22;9011;33.236;-97.118;2023-05-16T00:03:52;28.10;99.90
17774;DHT22;9011;33.236;-97.118;2023-05-16T00:06:21;28.20;99.90
17774;DHT22;9011;33.236;-97.118;2023-05-16T00:08:49;28.00;99.90
17774;DHT22;9011;33.236;-97.118;2023-05-16T00:11:17;27.90;99.90
17774;DHT22;9011;33.236;-97.118;2023-05-16T00:13:47;28.00;99.90
17774;DHT22;9011;33.236;-97.118;2023-05-16T00:16:17;27.60;99.90
17774;DHT22;9011;33.236;-97.118;2023-05-16T00:18:46;27.60;99.90
17774;DHT22;9011;33.236;-97.118;2023-05-16T00:21:15;27.30;99.90
17774;DHT22;9011;33.236;-97.118;2023-05-16T00:23:43;27.20;99.90
17774;DHT22;9011;33.236;-97.118;2023-05-16T00:26:12;27.20;99.90
17774;DHT22;9011;33.236;-97.118;2023-05-16T00:28:40;27.30;99.90
17774;DHT22;9011;33.236;-97.118;2023-05-16T00:31:09;27.20;99.90
17774;DHT22;9011;33.236;-97.118;2023-05-16T00:33:39;27.20;99.90
17774;DHT22;9011;33.236;-97.118;2023-05-16T00:36:08;27.30;99.90
17774;DHT22;9011;33.236;-97.118;2023-05-16T00:38:36;27.20;99.90
17774;DHT22;9011;33.236;-97.118;2023-05-16T00:41:05;27.20;99.90
17774;DHT22;9011;33.236;-97.118;2023-05-16T00:43:33;27.20;99.90
17774;DHT22;9011;33.236;-97.118;2023-05-16T00:46:01;27.20;99.90
17774;DHT22;9011;33.236;-97.118;2023-05-16T00:48:30;27.20;99.90
17774;DHT22;9011;33.236;-97.118;2023-05-16T00:51:00;26.90;99.90
17774;DHT22;9011;33.236;-97.118;2023-05-16T00:53:29;26.80;99.90
17774;DHT22;9011;33.236;-97.118;2023-05-16T00:55:58;26.80;99.90
17774;DHT22;9011;33.236;-97.118;2023-05-16T00:58:28;26.80;99.90
17774;DHT22;9011;33.236;-97.118;2023-05-16T01:00:57;26.80;99.90
17774;DHT22;9011;33.236;-97.118;2023-05-16T01:03:27;26.80;99.90
17774;DHT22;9011;33.236;-97.118;2023-05-16T01:05:57;26.80;99.90
17774;DHT22;9011;33.236;-97.118;2023-05-16T01:08:27;26.80;99.90
17774;DHT22;9011;33.236;-97.118;2023-05-16T01:11:02;26.70;99.90
17774;DHT22;9011;33.236;-97.118;2023-05-16T01:13:39;26.20;99.90
17774;DHT22;9011;33.236;-97.118;2023-05-16T01:16:15;25.70;99.90
17774;DHT22;9011;33.236;-97.118;2023-05-16T01:18:54;25.40;99.90
17774;DHT22;9011;33.236;-97.118;2023-05-16T01:21:31;24.60;99.90
17774;DHT22;9011;33.236;-97.118;2023-05-16T01:24:13;24.00;99.90
17774;DHT22;9011;33.236;-97.118;2023-05-16T01:26:49;23.60;99.90
17774;DHT22;9011;33.236;-97.118;2023-05-16T01:29:19;23.30;99.90
17774;DHT22;9011;33.236;-97.118;2023-05-16T01:43:50;23.00;99.90
17774;DHT22;9011;33.236;-97.118;2023-05-16T01:46:23;21.80;99.90
17774;DHT22;9011;33.236;-97.118;2023-05-16T01:49:15;21.90;99.90
17774;DHT22;9011;33.236;-97.118;2023-05-16T01:51:55;21.70;99.90
17774;DHT22;9011;33.236;-97.118;2023-05-16T02:01:56;21.50;99.90
17774;DHT22;9011;33.236;-97.118;2023-05-16T02:19:16;21.60;99.90
17774;DHT22;9011;33.236;-97.118;2023-05-16T02:22:42;21.60;99.90
17774;DHT22;9011;33.236;-97.118;2023-05-16T02:25:37;21.60;99.90
17774;DHT22;9011;33.236;-97.118;2023-05-16T10:49:44;19.40;99.90
17774;DHT22;9011;33.236;-97.118;2023-05-16T11:47:26;19.10;99.90
17774;DHT22;9011;33.236;-97.118;2023-05-16T11:49:59;19.00;99.90
17774;DHT22;9011;33.236;-97.118;2023-05-16T11:52:33;19.10;99.90
17774;DHT22;9011;33.236;-97.118;2023-05-16T11:55:03;19.10;99.90
17774;DHT22;9011;33.236;-97.118;2023-05-16T11:57:41;19.10;99.90
17774;DHT22;9011;33.236;-97.118;2023-05-16T12:00:18;19.10;99.90
17774;DHT22;9011;33.236;-97.118;2023-05-16T12:03:16;19.10;99.90
17774;DHT22;9011;33.236;-97.118;2023-05-16T12:05:50;19.10;99.90
17774;DHT22;9011;33.236;-97.118;2023-05-16T12:08:25;19.10;99.90
17774;DHT22;9011;33.236;-97.118;2023-05-16T12:11:00;19.10;99.90
17774;DHT22;9011;33.236;-97.118;2023-05-16T12:13:29;19.00;99.90
17774;DHT22;9011;33.236;-97.118;2023-05-16T12:16:00;19.10;99.90
17774;DHT22;9011;33.236;-97.118;2023-05-16T12:18:43;19.10;99.90
17774;DHT22;9011;33.236;-97.118;2023-05-16T12:21:15;19.10;99.90
17774;DHT22;9011;33.236;-97.118;2023-05-16T12:23:43;19.20;99.90
17774;DHT22;9011;33.236;-97.118;2023-05-16T12:26:27;19.20;99.90
17774;DHT22;9011;33.236;-97.118;2023-05-16T12:29:01;19.10;99.90
17774;DHT22;9011;33.236;-97.118;2023-05-16T12:31:43;19.10;99.90
17774;DHT22;9011;33.236;-97.118;2023-05-16T12:34:22;19.10;99.90
17774;DHT22;9011;33.236;-97.118;2023-05-16T12:36:59;19.10;99.90
17774;DHT22;9011;33.236;-97.118;2023-05-16T12:39:43;19.10;99.90
17774;DHT22;9011;33.236;-97.118;2023-05-16T12:42:19;19.10;99.90
17774;DHT22;9011;33.236;-97.118;2023-05-16T12:44:47;19.10;99.90
17774;DHT22;9011;33.236;-97.118;2023-05-16T12:47:16;19.10;99.90
17774;DHT22;9011;33.236;-97.118;2023-05-16T12:49:47;19.10;99.90
17774;DHT22;9011;33.236;-97.118;2023-05-16T12:52:20;19.10;99.90
17774;DHT22;9011;33.236;-97.118;2023-05-16T12:54:49;19.20;99.90
17774;DHT22;9011;33.236;-97.118;2023-05-16T12:57:17;19.20;99.90
17774;DHT22;9011;33.236;-97.118;2023-05-16T12:59:46;19.30;99.90
17774;DHT22;9011;33.236;-97.118;2023-05-16T13:02:15;19.30;99.90
17774;DHT22;9011;33.236;-97.118;2023-05-16T13:04:48;19.20;99.90
17774;DHT22;9011;33.236;-97.118;2023-05-16T13:07:17;19.30;99.90
17774;DHT22;9011;33.236;-97.118;2023-05-16T13:09:45;19.30;99.90
17774;DHT22;9011;33.236;-97.118;2023-05-16T13:12:14;19.30;99.90
17774;DHT22;9011;33.236;-97.118;2023-05-16T13:14:43;19.40;99.90
17774;DHT22;9011;33.236;-97.118;2023-05-16T13:17:12;19.50;99.90
17774;DHT22;9011;33.236;-97.118;2023-05-16T13:19:40;19.40;99.90
17774;DHT22;9011;33.236;-97.118;2023-05-16T13:22:10;19.40;99.90
17774;DHT22;9011;33.236;-97.118;2023-05-16T13:24:39;19.60;99.90
17774;DHT22;9011;33.236;-97.118;2023-05-16T13:27:07;19.60;99.90
17774;DHT22;9011;33.236;-97.118;2023-05-16T13:29:37;19.70;99.90
17774;DHT22;9011;33.236;-97.118;2023-05-16T13:32:07;19.80;99.90
17774;DHT22;9011;33.236;-97.118;2023-05-16T13:34:35;19.80;99.90
17774;DHT22;9011;33.236;-97.118;2023-05-16T13:37:04;19.90;99.90
17774;DHT22;9011;33.236;-97.118;2023-05-16T13:39:34;19.90;99.90
17774;DHT22;9011;33.236;-97.118;2023-05-16T13:42:02;20.00;99.90
17774;DHT22;9011;33.236;-97.118;2023-05-16T13:44:31;20.00;99.90
17774;DHT22;9011;33.236;-97.118;2023-05-16T13:47:00;20.10;99.90
17774;DHT22;9011;33.236;-97.118;2023-05-16T13:49:28;20.00;99.90
17774;DHT22;9011;33.236;-97.118;2023-05-16T13:51:57;20.00;99.90
17774;DHT22;9011;33.236;-97.118;2023-05-16T13:54:26;20.10;99.90
17774;DHT22;9011;33.236;-97.118;2023-05-16T13:56:57;20.20;99.90
17774;DHT22;9011;33.236;-97.118;2023-05-16T13:59:25;20.10;99.90
17774;DHT22;9011;33.236;-97.118;2023-05-16T14:01:54;20.20;99.90
17774;DHT22;9011;33.236;-97.118;2023-05-16T14:04:23;20.30;99.90
17774;DHT22;9011;33.236;-97.118;2023-05-16T14:06:51;20.40;99.90
17774;DHT22;9011;33.236;-97.118;2023-05-16T14:09:20;20.50;99.90
17774;DHT22;9011;33.236;-97.118;2023-05-16T14:11:49;20.50;99.90
17774;DHT22;9011;33.236;-97.118;2023-05-16T14:14:19;20.50;99.90
17774;DHT22;9011;33.236;-97.118;2023-05-16T14:16:48;20.40;99.90
17774;DHT22;9011;33.236;-97.118;2023-05-16T14:19:16;20.50;99.90
17774;DHT22;9011;33.236;-97.118;2023-05-16T14:21:45;20.30;99.90
17774;DHT22;9011;33.236;-97.118;2023-05-16T14:24:13;20.30;99.90
17774;DHT22;9011;33.236;-97.118;2023-05-16T14:26:42;20.50;99.90
17774;DHT22;9011;33.236;-97.118;2023-05-16T14:29:14;20.60;99.90
17774;DHT22;9011;33.236;-97.118;2023-05-16T14:31:52;20.60;99.90
17774;DHT22;9011;33.236;-97.118;2023-05-16T14:34:28;20.70;99.90
17774;DHT22;9011;33.236;-97.118;2023-05-16T14:36:59;20.80;99.90
17774;DHT22;9011;33.236;-97.118;2023-05-16T14:39:28;20.90;99.90
17774;DHT22;9011;33.236;-97.118;2023-05-16T14:41:56;20.90;99.90
17774;DHT22;9011;33.236;-97.118;2023-05-16T14:44:25;20.70;99.90
17774;DHT22;9011;33.236;-97.118;2023-05-16T14:46:55;20.70;99.90
17774;DHT22;9011;33.236;-97.118;2023-05-16T14:49:23;20.70;99.90
17774;DHT22;9011;33.236;-97.118;2023-05-16T14:51:58;20.70;99.90
17774;DHT22;9011;33.236;-97.118;2023-05-16T14:54:27;20.70;99.90
17774;DHT22;9011;33.236;-97.118;2023-05-16T14:57:01;20.70;99.90
17774;DHT22;9011;33.236;-97.118;2023-05-16T14:59:33;20.70;99.90
17774;DHT22;9011;33.236;-97.118;2023-05-16T15:02:13;20.80;99.90
17774;DHT22;9011;33.236;-97.118;2023-05-16T15:05:00;21.20;99.90
17774;DHT22;9011;33.236;-97.118;2023-05-16T15:07:34;21.40;99.90
17774;DHT22;9011;33.236;-97.118;2023-05-16T15:10:03;21.60;99.90
17774;DHT22;9011;33.236;-97.118;2023-05-16T15:12:32;21.70;99.90
17774;DHT22;9011;33.236;-97.118;2023-05-16T15:15:02;21.80;99.90
17774;DHT22;9011;33.236;-97.118;2023-05-16T15:17:32;21.70;99.90
17774;DHT22;9011;33.236;-97.118;2023-05-16T15:20:00;21.60;99.90
17774;DHT22;9011;33.236;-97.118;2023-05-16T15:22:32;21.50;99.90
17774;DHT22;9011;33.236;-97.118;2023-05-16T15:25:00;21.50;99.90
17774;DHT22;9011;33.236;-97.118;2023-05-16T15:27:31;21.50;99.90
17774;DHT22;9011;33.236;-97.118;2023-05-16T15:29:59;21.50;99.90
17774;DHT22;9011;33.236;-97.118;2023-05-16T15:32:29;21.50;99.90
17774;DHT22;9011;33.236;-97.118;2023-05-16T15:35:06;21.40;99.90
17774;DHT22;9011;33.236;-97.118;2023-05-16T15:37:40;21.40;99.90
17774;DHT22;9011;33.236;-97.118;2023-05-16T15:40:11;21.70;99.90
17774;DHT22;9011;33.236;-97.118;2023-05-16T15:42:46;21.90;99.90
17774;DHT22;9011;33.236;-97.118;2023-05-16T15:45:20;22.10;99.90
17774;DHT22;9011;33.236;-97.118;2023-05-16T15:48:00;22.20;99.90
17774;DHT22;9011;33.236;-97.118;2023-05-16T15:50:32;22.30;99.90
17774;DHT22;9011;33.236;-97.118;2023-05-16T15:53:06;22.40;99.90
17774;DHT22;9011;33.236;-97.118;2023-05-16T15:55:41;22.40;99.90
17774;DHT22;9011;33.236;-97.118;2023-05-16T15:58:19;22.30;99.90
17774;DHT22;9011;33.236;-97.118;2023-05-16T16:01:01;22.30;99.90
17774;DHT22;9011;33.236;-97.118;2023-05-16T16:03:48;22.60;99.90
17774;DHT22;9011;33.236;-97.118;2023-05-16T16:06:49;22.50;99.90
17774;DHT22;9011;33.236;-97.118;2023-05-16T16:09:24;22.60;99.90
17774;DHT22;9011;33.236;-97.118;2023-05-16T16:15:45;22.80;99.90
17774;DHT22;9011;33.236;-97.118;2023-05-16T16:18:24;23.00;99.90
17774;DHT22;9011;33.236;-97.118;2023-05-16T16:21:06;23.00;99.90
17774;DHT22;9011;33.236;-97.118;2023-05-16T16:23:59;23.30;99.90
17774;DHT22;9011;33.236;-97.118;2023-05-16T16:27:08;23.40;99.90
17774;DHT22;9011;33.236;-97.118;2023-05-16T16:29:38;23.10;99.90
17774;DHT22;9011;33.236;-97.118;2023-05-16T16:32:09;23.20;99.90
17774;DHT22;9011;33.236;-97.118;2023-05-16T16:34:38;23.20;99.90
17774;DHT22;9011;33.236;-97.118;2023-05-16T16:37:06;23.20;99.90
17774;DHT22;9011;33.236;-97.118;2023-05-16T16:39:37;23.20;99.90
17774;DHT22;9011;33.236;-97.118;2023-05-16T16:42:06;23.20;99.90
17774;DHT22;9011;33.236;-97.118;2023-05-16T16:44:43;23.30;99.90
17774;DHT22;9011;33.236;-97.118;2023-05-16T16:47:18;23.60;99.90
17774;DHT22;9011;33.236;-97.118;2023-05-16T16:49:47;23.70;99.90
17774;DHT22;9011;33.236;-97.118;2023-05-16T16:52:15;23.60;99.90
17774;DHT22;9011;33.236;-97.118;2023-05-16T16:57:48;23.70;99.90
17774;DHT22;9011;33.236;-97.118;2023-05-16T17:00:20;23.80;99.90
17774;DHT22;9011;33.236;-97.118;2023-05-16T17:02:51;23.70;99.90
17774;DHT22;9011;33.236;-97.118;2023-05-16T17:05:33;23.80;99.90
17774;DHT22;9011;33.236;-97.118;2023-05-16T17:08:01;23.80;99.90
17774;DHT22;9011;33.236;-97.118;2023-05-16T17:10:31;24.10;99.90
17774;DHT22;9011;33.236;-97.118;2023-05-16T17:13:02;24.30;99.90
17774;DHT22;9011;33.236;-97.118;2023-05-16T17:15:32;24.30;99.90
17774;DHT22;9011;33.236;-97.118;2023-05-16T17:18:01;24.30;99.90
17774;DHT22;9011;33.236;-97.118;2023-05-16T17:20:30;24.20;99.90
17774;DHT22;9011;33.236;-97.118;2023-05-16T17:22:59;24.30;99.90
17774;DHT22;9011;33.236;-97.118;2023-05-16T17:25:28;24.40;99.90
17774;DHT22;9011;33.236;-97.118;2023-05-16T17:27:58;24.40;99.90
17774;DHT22;9011;33.236;-97.118;2023-05-16T17:30:28;24.30;99.90
17774;DHT22;9011;33.236;-97.118;2023-05-16T17:32:58;24.00;99.90
17774;DHT22;9011;33.236;-97.118;2023-05-16T17:35:27;23.70;99.90
17774;DHT22;9011;33.236;-97.118;2023-05-16T17:37:56;23.40;99.90
17774;DHT22;9011;33.236;-97.118;2023-05-16T17:40:24;23.40;99.90
17774;DHT22;9011;33.236;-97.118;2023-05-16T17:46:10;23.20;99.90
17774;DHT22;9011;33.236;-97.118;2023-05-16T17:48:41;23.20;99.90
17774;DHT22;9011;33.236;-97.118;2023-05-16T17:51:09;23.30;99.90
17774;DHT22;9011;33.236;-97.118;2023-05-16T17:53:49;23.50;99.90
17774;DHT22;9011;33.236;-97.118;2023-05-16T17:56:22;23.60;99.90
17774;DHT22;9011;33.236;-97.118;2023-05-16T17:58:51;23.60;99.90
17774;DHT22;9011;33.236;-97.118;2023-05-16T18:01:21;23.90;99.90
17774;DHT22;9011;33.236;-97.118;2023-05-16T18:04:02;23.90;99.90
17774;DHT22;9011;33.236;-97.118;2023-05-16T18:06:37;23.70;99.90
17774;DHT22;9011;33.236;-97.118;2023-05-16T18:09:07;23.60;99.90
17774;DHT22;9011;33.236;-97.118;2023-05-16T18:11:38;23.40;99.90
17774;DHT22;9011;33.236;-97.118;2023-05-16T18:14:07;23.50;99.90
17774;DHT22;9011;33.236;-97.118;2023-05-16T18:16:39;23.70;99.90
17774;DHT22;9011;33.236;-97.118;2023-05-16T18:19:09;23.90;99.90
17774;DHT22;9011;33.236;-97.118;2023-05-16T18:21:37;23.90;99.90
17774;DHT22;9011;33.236;-97.118;2023-05-16T18:24:06;23.60;99.90
17774;DHT22;9011;33.236;-97.118;2023-05-16T18:26:36;23.50;99.90
17774;DHT22;9011;33.236;-97.118;2023-05-16T18:29:05;23.40;99.90
17774;DHT22;9011;33.236;-97.118;2023-05-16T18:31:37;23.40;99.90
17774;DHT22;9011;33.236;-97.118;2023-05-16T18:34:07;23.50;99.90
17774;DHT22;9011;33.236;-97.118;2023-05-16T18:36:40;23.30;99.90
17774;DHT22;9011;33.236;-97.118;2023-05-16T18:39:17;23.20;99.90
17774;DHT22;9011;33.236;-97.118;2023-05-16T18:42:08;23.20;99.90
17774;DHT22;9011;33.236;-97.118;2023-05-16T18:44:51;23.40;99.90
17774;DHT22;9011;33.236;-97.118;2023-05-16T18:47:39;23.60;99.90
17774;DHT22;9011;33.236;-97.118;2023-05-16T18:50:20;23.60;99.90
17774;DHT22;9011;33.236;-97.118;2023-05-16T18:53:00;23.40;99.90
17774;DHT22;9011;33.236;-97.118;2023-05-16T18:58:24;23.30;99.90
17774;DHT22;9011;33.236;-97.118;2023-05-16T19:01:06;23.40;99.90
17774;DHT22;9011;33.236;-97.118;2023-05-16T19:04:13;23.30;99.90
17774;DHT22;9011;33.236;-97.118;2023-05-16T19:06:52;23.40;99.90
17774;DHT22;9011;33.236;-97.118;2023-05-16T19:09:35;23.50;99.90
17774;DHT22;9011;33.236;-97.118;2023-05-16T19:12:08;23.50;99.90
17774;DHT22;9011;33.236;-97.118;2023-05-16T19:14:39;23.60;99.90
17774;DHT22;9011;33.236;-97.118;2023-05-16T19:17:12;23.60;99.90
17774;DHT22;9011;33.236;-97.118;2023-05-16T19:19:44;23.60;99.90
17774;DHT22;9011;33.236;-97.118;2023-05-16T19:22:26;23.70;99.90
17774;DHT22;9011;33.236;-97.118;2023-05-16T19:24:54;23.90;99.90
17774;DHT22;9011;33.236;-97.118;2023-05-16T19:27:23;24.20;99.90
17774;DHT22;9011;33.236;-97.118;2023-05-16T19:29:54;24.40;99.90
17774;DHT22;9011;33.236;-97.118;2023-05-16T19:32:26;24.60;99.90
17774;DHT22;9011;33.236;-97.118;2023-05-16T19:35:01;24.80;99.90
17774;DHT22;9011;33.236;-97.118;2023-05-16T19:37:48;24.80;99.90
17774;DHT22;9011;33.236;-97.118;2023-05-16T19:40:33;24.60;99.90
17774;DHT22;9011;33.236;-97.118;2023-05-16T19:43:24;25.00;99.90
17774;DHT22;9011;33.236;-97.118;2023-05-16T19:48:52;24.60;99.90
17774;DHT22;9011;33.236;-97.118;2023-05-16T19:54:50;24.50;99.90
17774;DHT22;9011;33.236;-97.118;2023-05-16T19:57:31;24.20;99.90
17774;DHT22;9011;33.236;-97.118;2023-05-16T20:00:34;24.00;99.90
17774;DHT22;9011;33.236;-97.118;2023-05-16T20:03:31;23.70;99.90
17774;DHT22;9011;33.236;-97.118;2023-05-16T20:06:08;23.70;99.90
17774;DHT22;9011;33.236;-97.118;2023-05-16T20:08:49;23.50;99.90
17774;DHT22;9011;33.236;-97.118;2023-05-16T20:11:29;23.60;99.90
17774;DHT22;9011;33.236;-97.118;2023-05-16T20:14:15;23.60;99.90
17774;DHT22;9011;33.236;-97.118;2023-05-16T20:16:53;23.70;99.90
17774;DHT22;9011;33.236;-97.118;2023-05-16T20:19:37;24.00;99.90
17774;DHT22;9011;33.236;-97.118;2023-05-16T20:22:09;23.90;99.90
17774;DHT22;9011;33.236;-97.118;2023-05-16T20:24:37;24.00;99.90
17774;DHT22;9011;33.236;-97.118;2023-05-16T20:27:07;24.20;99.90
17774;DHT22;9011;33.236;-97.118;2023-05-16T20:29:36;24.20;99.90
17774;DHT22;9011;33.236;-97.118;2023-05-16T20:32:05;24.40;99.90
17774;DHT22;9011;33.236;-97.118;2023-05-16T20:34:33;24.70;99.90
17774;DHT22;9011;33.236;-97.118;2023-05-16T20:37:02;25.00;99.90
17774;DHT22;9011;33.236;-97.118;2023-05-16T20:39:32;25.00;99.90
17774;DHT22;9011;33.236;-97.118;2023-05-16T20:42:01;25.10;99.90
17774;DHT22;9011;33.236;-97.118;2023-05-16T20:44:31;25.30;99.90
17774;DHT22;9011;33.236;-97.118;2023-05-16T20:47:02;25.20;99.90
17774;DHT22;9011;33.236;-97.118;2023-05-16T20:49:30;25.20;99.90
17774;DHT22;9011;33.236;-97.118;2023-05-16T20:52:01;25.20;99.90
17774;DHT22;9011;33.236;-97.118;2023-05-16T20:54:29;25.10;99.90
17774;DHT22;9011;33.236;-97.118;2023-05-16T20:56:58;25.10;99.90
17774;DHT22;9011;33.236;-97.118;2023-05-16T20:59:26;24.80;99.90
17774;DHT22;9011;33.236;-97.118;2023-05-16T21:01:56;24.80;99.90
17774;DHT22;9011;33.236;-97.118;2023-05-16T21:04:25;24.80;99.90
17774;DHT22;9011;33.236;-97.118;2023-05-16T21:06:53;25.10;99.90
17774;DHT22;9011;33.236;-97.118;2023-05-16T21:09:21;25.20;99.90
17774;DHT22;9011;33.236;-97.118;2023-05-16T21:11:50;25.30;99.90
17774;DHT22;9011;33.236;-97.118;2023-05-16T21:14:18;25.20;99.90
17774;DHT22;9011;33.236;-97.118;2023-05-16T21:16:47;25.30;99.90
17774;DHT22;9011;33.236;-97.118;2023-05-16T21:19:17;25.30;99.90
17774;DHT22;9011;33.236;-97.118;2023-05-16T21:21:49;25.20;99.90
17774;DHT22;9011;33.236;-97.118;2023-05-16T21:24:17;25.20;99.90
17774;DHT22;9011;33.236;-97.118;2023-05-16T21:26:46;25.10;99.90
17774;DHT22;9011;33.236;-97.118;2023-05-16T21:29:14;25.20;99.90
17774;DHT22;9011;33.236;-97.118;2023-05-16T21:31:42;25.40;99.90
17774;DHT22;9011;33.236;-97.118;2023-05-16T21:34:11;25.50;99.90
17774;DHT22;9011;33.236;-97.118;2023-05-16T21:36:41;25.40;99.90
17774;DHT22;9011;33.236;-97.118;2023-05-16T21:39:09;25.40;99.90
17774;DHT22;9011;33.236;-97.118;2023-05-16T21:41:38;25.60;99.90
17774;DHT22;9011;33.236;-97.118;2023-05-16T21:44:06;25.60;99.90
17774;DHT22;9011;33.236;-97.118;2023-05-16T21:46:34;25.70;99.90
17774;DHT22;9011;33.236;-97.118;2023-05-16T21:49:03;26.00;99.90
17774;DHT22;9011;33.236;-97.118;2023-05-16T21:51:31;25.80;99.90
17774;DHT22;9011;33.236;-97.118;2023-05-16T21:54:01;25.90;99.90
17774;DHT22;9011;33.236;-97.118;2023-05-16T21:56:32;26.10;99.90
17774;DHT22;9011;33.236;-97.118;2023-05-16T21:59:00;25.80;99.90
17774;DHT22;9011;33.236;-97.118;2023-05-16T22:01:29;25.80;99.90
17774;DHT22;9011;33.236;-97.118;2023-05-16T22:03:57;25.40;99.90
17774;DHT22;9011;33.236;-97.118;2023-05-16T22:06:26;25.40;99.90
17774;DHT22;9011;33.236;-97.118;2023-05-16T22:08:56;25.50;99.90
17774;DHT22;9011;33.236;-97.118;2023-05-16T22:11:28;25.40;99.90
17774;DHT22;9011;33.236;-97.118;2023-05-16T22:14:00;25.50;99.90
17774;DHT22;9011;33.236;-97.118;2023-05-16T22:16:29;25.80;99.90
17774;DHT22;9011;33.236;-97.118;2023-05-16T22:18:57;25.70;99.90
17774;DHT22;9011;33.236;-97.118;2023-05-16T22:21:29;25.90;99.90
17774;DHT22;9011;33.236;-97.118;2023-05-16T22:23:58;25.80;99.90
17774;DHT22;9011;33.236;-97.118;2023-05-16T22:26:28;25.90;99.90
17774;DHT22;9011;33.236;-97.118;2023-05-16T22:28:56;26.30;99.90
17774;DHT22;9011;33.236;-97.118;2023-05-16T22:31:24;26.10;99.90
17774;DHT22;9011;33.236;-97.118;2023-05-16T22:33:53;26.10;99.90
17774;DHT22;9011;33.236;-97.118;2023-05-16T22:36:21;26.10;99.90
17774;DHT22;9011;33.236;-97.118;2023-05-16T22:38:49;26.40;99.90
17774;DHT22;9011;33.236;-97.118;2023-05-16T22:41:18;26.20;99.90
17774;DHT22;9011;33.236;-97.118;2023-05-16T22:43:48;26.20;99.90
17774;DHT22;9011;33.236;-97.118;2023-05-16T22:46:16;26.40;99.90
17774;DHT22;9011;33.236;-97.118;2023-05-16T22:48:44;26.50;99.90
17774;DHT22;9011;33.236;-97.118;2023-05-16T22:51:13;26.40;99.90
17774;DHT22;9011;33.236;-97.118;2023-05-16T22:53:41;26.40;99.90
17774;DHT22;9011;33.236;-97.118;2023-05-16T22:56:09;26.40;99.90
17774;DHT22;9011;33.236;-97.118;2023-05-16T22:58:39;25.90;99.90
17774;DHT22;9011;33.236;-97.118;2023-05-16T23:01:09;26.20;99.90
17774;DHT22;9011;33.236;-97.118;2023-05-16T23:03:37;26.00;99.90
17774;DHT22;9011;33.236;-97.118;2023-05-16T23:06:06;25.90;99.90
17774;DHT22;9011;33.236;-97.118;2023-05-16T23:08:35;26.00;99.90
17774;DHT22;9011;33.236;-97.118;2023-05-16T23:11:03;25.60;99.90
17774;DHT22;9011;33.236;-97.118;2023-05-16T23:13:32;25.50;99.90
17774;DHT22;9011;33.236;-97.118;2023-05-16T23:16:03;25.60;99.90
17774;DHT22;9011;33.236;-97.118;2023-05-16T23:18:33;25.70;99.90
17774;DHT22;9011;33.236;-97.118;2023-05-16T23:21:02;25.70;99.90
17774;DHT22;9011;33.236;-97.118;2023-05-16T23:23:31;25.20;99.90
17774;DHT22;9011;33.236;-97.118;2023-05-16T23:26:03;25.30;99.90
17774;DHT22;9011;33.236;-97.118;2023-05-16T23:28:31;25.10;99.90
17774;DHT22;9011;33.236;-97.118;2023-05-16T23:31:00;25.00;99.90
17774;DHT22;9011;33.236;-97.118;2023-05-16T23:33:28;25.00;99.90
17774;DHT22;9011;33.236;-97.118;2023-05-16T23:35:58;25.10;99.90
17774;DHT22;9011;33.236;-97.118;2023-05-16T23:38:27;24.70;99.90
17774;DHT22;9011;33.236;-97.118;2023-05-16T23:40:55;24.70;99.90
17774;DHT22;9011;33.236;-97.118;2023-05-16T23:43:24;24.60;99.90
17774;DHT22;9011;33.236;-97.118;2023-05-16T23:45:52;24.60;99.90
17774;DHT22;9011;33.236;-97.118;2023-05-16T23:48:21;24.50;99.90
17774;DHT22;9011;33.236;-97.118;2023-05-16T23:50:49;24.60;99.90
17774;DHT22;9011;33.236;-97.118;2023-05-16T23:53:19;24.50;99.90
17774;DHT22;9011;33.236;-97.118;2023-05-16T23:55:53;24.40;99.90
17774;DHT22;9011;33.236;-97.118;2023-05-16T23:58:23;24.30;99.90
